sensor_id;sensor_type;location;lat;lon;timestamp;temperature;humidity
81488;DHT22;70897;52.464;13.428;2024-03-02T14:38:04;10.00;95.60
81488;DHT22;70897;52.464;13.428;2024-03-02T14:40:49;16.20;68.40
81488;DHT22;70897;52.464;13.428;2024-03-02T14:43:34;15.80;69.10
81488;DHT22;70897;52.464;13.428;2024-03-02T14:46:20;15.80;69.80
81488;DHT22;70897;52.464;13.428;2024-03-02T14:49:05;15.40;72.20
81488;DHT22;70897;52.464;13.428;2024-03-02T14:51:50;15.10;76.00
81488;DHT22;70897;52.464;13.428;2024-03-02T14:54:35;14.70;81.30
81488;DHT22;70897;52.464;13.428;2024-03-02T14:57:20;14.60;84.90
81488;DHT22;70897;52.464;13.428;2024-03-02T15:00:05;14.60;86.70
81488;DHT22;70897;52.464;13.428;2024-03-02T15:02:52;14.40;90.00
81488;DHT22;70897;52.464;13.428;2024-03-02T15:05:37;14.20;91.10
81488;DHT22;70897;52.464;13.428;2024-03-02T15:08:23;14.20;92.70
81488;DHT22;70897;52.464;13.428;2024-03-02T15:11:09;14.20;93.70
81488;DHT22;70897;52.464;13.428;2024-03-02T15:13:54;14.10;93.30
81488;DHT22;70897;52.464;13.428;2024-03-02T15:16:39;14.10;94.70
81488;DHT22;70897;52.464;13.428;2024-03-02T15:19:24;14.00;94.60
81488;DHT22;70897;52.464;13.428;2024-03-02T15:22:10;14.00;95.20
81488;DHT22;70897;52.464;13.428;2024-03-02T15:24:55;14.00;96.00
81488;DHT22;70897;52.464;13.428;2024-03-02T15:27:39;13.90;96.30
81488;DHT22;70897;52.464;13.428;2024-03-02T15:30:24;13.80;96.20
81488;DHT22;70897;52.464;13.428;2024-03-02T15:33:09;13.80;97.30
81488;DHT22;70897;52.464;13.428;2024-03-02T15:35:54;13.80;97.80
81488;DHT22;70897;52.464;13.428;2024-03-02T15:38:39;13.70;98.40
81488;DHT22;70897;52.464;13.428;2024-03-02T15:41:24;13.50;99.30
81488;DHT22;70897;52.464;13.428;2024-03-02T15:44:10;13.50;99.90
81488;DHT22;70897;52.464;13.428;2024-03-02T15:46:55;13.30;99.90
81488;DHT22;70897;52.464;13.428;2024-03-02T15:49:40;13.20;99.90
81488;DHT22;70897;52.464;13.428;2024-03-02T15:52:25;13.20;99.90
81488;DHT22;70897;52.464;13.428;2024-03-02T15:55:10;13.10;99.90
81488;DHT22;70897;52.464;13.428;2024-03-02T15:57:55;13.10;99.90
81488;DHT22;70897;52.464;13.428;2024-03-02T16:00:42;13.00;99.90
81488;DHT22;70897;52.464;13.428;2024-03-02T16:03:27;12.90;99.90
81488;DHT22;70897;52.464;13.428;2024-03-02T16:06:12;12.80;99.90
81488;DHT22;70897;52.464;13.428;2024-03-02T16:08:57;12.70;99.90
81488;DHT22;70897;52.464;13.428;2024-03-02T16:11:44;12.60;99.90
81488;DHT22;70897;52.464;13.428;2024-03-02T16:14:29;12.50;99.90
81488;DHT22;70897;52.464;13.428;2024-03-02T16:17:14;12.40;99.90
81488;DHT22;70897;52.464;13.428;2024-03-02T16:19:59;12.30;99.90
81488;DHT22;70897;52.464;13.428;2024-03-02T16:22:45;12.30;99.90
81488;DHT22;70897;52.464;13.428;2024-03-02T16:25:30;12.20;99.90
81488;DHT22;70897;52.464;13.428;2024-03-02T16:28:15;12.10;99.90
81488;DHT22;70897;52.464;13.428;2024-03-02T16:31:01;12.00;99.90
81488;DHT22;70897;52.464;13.428;2024-03-02T16:33:46;11.90;99.90
81488;DHT22;70897;52.464;13.428;2024-03-02T16:36:31;11.80;99.90
81488;DHT22;70897;52.464;13.428;2024-03-02T16:39:19;11.70;99.90
81488;DHT22;70897;52.464;13.428;2024-03-02T16:42:04;11.60;99.90
81488;DHT22;70897;52.464;13.428;2024-03-02T16:44:50;11.50;99.90
81488;DHT22;70897;52.464;13.428;2024-03-02T16:47:39;11.50;99.90
81488;DHT22;70897;52.464;13.428;2024-03-02T16:50:25;11.40;99.90
81488;DHT22;70897;52.464;13.428;2024-03-02T16:53:10;11.40;99.90
81488;DHT22;70897;52.464;13.428;2024-03-02T16:55:59;11.30;99.90
81488;DHT22;70897;52.464;13.428;2024-03-02T16:58:44;11.20;99.90
81488;DHT22;70897;52.464;13.428;2024-03-02T17:01:29;11.10;99.90
81488;DHT22;70897;52.464;13.428;2024-03-02T17:04:14;11.10;99.90
81488;DHT22;70897;52.464;13.428;2024-03-02T17:06:59;11.00;99.90
81488;DHT22;70897;52.464;13.428;2024-03-02T17:09:44;11.00;99.90
81488;DHT22;70897;52.464;13.428;2024-03-02T17:12:29;10.90;99.90
81488;DHT22;70897;52.464;13.428;2024-03-02T17:15:16;10.90;99.90
81488;DHT22;70897;52.464;13.428;2024-03-02T17:18:01;10.80;99.90
81488;DHT22;70897;52.464;13.428;2024-03-02T17:20:46;10.80;99.90
81488;DHT22;70897;52.464;13.428;2024-03-02T17:23:31;10.80;99.90
81488;DHT22;70897;52.464;13.428;2024-03-02T17:26:16;10.70;99.90
81488;DHT22;70897;52.464;13.428;2024-03-02T17:29:01;10.70;99.90
81488;DHT22;70897;52.464;13.428;2024-03-02T17:31:46;10.60;99.90
81488;DHT22;70897;52.464;13.428;2024-03-02T17:34:32;10.60;99.90
81488;DHT22;70897;52.464;13.428;2024-03-02T17:37:16;10.50;99.90
81488;DHT22;70897;52.464;13.428;2024-03-02T17:40:01;10.40;99.90
81488;DHT22;70897;52.464;13.428;2024-03-02T17:42:47;10.40;99.90
81488;DHT22;70897;52.464;13.428;2024-03-02T17:45:32;10.40;99.90
81488;DHT22;70897;52.464;13.428;2024-03-02T17:48:17;10.30;99.90
81488;DHT22;70897;52.464;13.428;2024-03-02T17:51:06;10.30;99.90
81488;DHT22;70897;52.464;13.428;2024-03-02T17:53:51;10.30;99.90
81488;DHT22;70897;52.464;13.428;2024-03-02T17:56:36;10.30;99.90
81488;DHT22;70897;52.464;13.428;2024-03-02T17:59:21;10.20;99.90
81488;DHT22;70897;52.464;13.428;2024-03-02T18:02:06;10.20;99.90
81488;DHT22;70897;52.464;13.428;2024-03-02T18:04:53;10.20;99.90
81488;DHT22;70897;52.464;13.428;2024-03-02T18:07:39;10.20;99.90
81488;DHT22;70897;52.464;13.428;2024-03-02T18:10:24;10.10;99.90
81488;DHT22;70897;52.464;13.428;2024-03-02T18:13:09;10.10;99.90
81488;DHT22;70897;52.464;13.428;2024-03-02T18:15:55;10.10;99.90
81488;DHT22;70897;52.464;13.428;2024-03-02T18:18:41;10.10;99.90
81488;DHT22;70897;52.464;13.428;2024-03-02T18:21:26;10.10;99.90
81488;DHT22;70897;52.464;13.428;2024-03-02T18:24:12;10.00;99.90
81488;DHT22;70897;52.464;13.428;2024-03-02T18:26:57;10.00;99.90
81488;DHT22;70897;52.464;13.428;2024-03-02T18:29:44;10.00;99.90
81488;DHT22;70897;52.464;13.428;2024-03-02T18:32:29;10.00;99.90
81488;DHT22;70897;52.464;13.428;2024-03-02T18:35:14;10.10;99.90
81488;DHT22;70897;52.464;13.428;2024-03-02T18:37:59;10.00;99.90
81488;DHT22;70897;52.464;13.428;2024-03-02T18:40:44;10.00;99.90
81488;DHT22;70897;52.464;13.428;2024-03-02T18:43:32;10.00;99.90
81488;DHT22;70897;52.464;13.428;2024-03-02T18:46:17;10.00;99.90
81488;DHT22;70897;52.464;13.428;2024-03-02T18:49:03;10.00;99.90
81488;DHT22;70897;52.464;13.428;2024-03-02T18:51:48;10.00;99.90
81488;DHT22;70897;52.464;13.428;2024-03-02T18:54:33;9.90;99.90
81488;DHT22;70897;52.464;13.428;2024-03-02T18:57:18;9.90;99.90
81488;DHT22;70897;52.464;13.428;2024-03-02T19:00:05;10.00;99.90
81488;DHT22;70897;52.464;13.428;2024-03-02T19:02:54;9.90;99.90
81488;DHT22;70897;52.464;13.428;2024-03-02T19:05:39;9.80;99.90
81488;DHT22;70897;52.464;13.428;2024-03-02T19:08:24;9.80;99.90
81488;DHT22;70897;52.464;13.428;2024-03-02T19:11:16;9.80;99.90
81488;DHT22;70897;52.464;13.428;2024-03-02T19:14:01;9.70;99.90
81488;DHT22;70897;52.464;13.428;2024-03-02T19:16:46;9.70;99.90
81488;DHT22;70897;52.464;13.428;2024-03-02T19:19:31;9.70;99.90
81488;DHT22;70897;52.464;13.428;2024-03-02T19:22:16;9.70;99.90
81488;DHT22;70897;52.464;13.428;2024-03-02T19:25:01;9.70;99.90
81488;DHT22;70897;52.464;13.428;2024-03-02T19:27:46;9.70;99.90
81488;DHT22;70897;52.464;13.428;2024-03-02T19:30:31;9.60;99.90
81488;DHT22;70897;52.464;13.428;2024-03-02T19:33:17;9.60;99.90
81488;DHT22;70897;52.464;13.428;2024-03-02T19:36:02;9.60;99.90
81488;DHT22;70897;52.464;13.428;2024-03-02T19:38:48;9.60;99.90
81488;DHT22;70897;52.464;13.428;2024-03-02T19:41:33;9.60;99.90
81488;DHT22;70897;52.464;13.428;2024-03-02T19:44:18;9.60;99.90
81488;DHT22;70897;52.464;13.428;2024-03-02T19:47:03;9.60;99.90
81488;DHT22;70897;52.464;13.428;2024-03-02T19:49:48;9.60;99.90
81488;DHT22;70897;52.464;13.428;2024-03-02T19:52:33;9.60;99.90
81488;DHT22;70897;52.464;13.428;2024-03-02T19:55:18;9.60;99.90
81488;DHT22;70897;52.464;13.428;2024-03-02T19:58:04;9.60;99.90
81488;DHT22;70897;52.464;13.428;2024-03-02T20:00:49;9.60;99.90
81488;DHT22;70897;52.464;13.428;2024-03-02T20:03:34;9.60;99.90
81488;DHT22;70897;52.464;13.428;2024-03-02T20:06:19;9.60;99.90
81488;DHT22;70897;52.464;13.428;2024-03-02T20:09:05;9.50;99.90
81488;DHT22;70897;52.464;13.428;2024-03-02T20:11:50;9.50;99.90
81488;DHT22;70897;52.464;13.428;2024-03-02T20:14:36;9.50;99.90
81488;DHT22;70897;52.464;13.428;2024-03-02T20:17:21;9.40;99.90
81488;DHT22;70897;52.464;13.428;2024-03-02T20:20:07;9.40;99.90
81488;DHT22;70897;52.464;13.428;2024-03-02T20:22:56;9.40;99.90
81488;DHT22;70897;52.464;13.428;2024-03-02T20:25:41;9.40;99.90
81488;DHT22;70897;52.464;13.428;2024-03-02T20:28:26;9.40;99.90
81488;DHT22;70897;52.464;13.428;2024-03-02T20:31:11;9.40;99.90
81488;DHT22;70897;52.464;13.428;2024-03-02T20:33:58;9.30;99.90
81488;DHT22;70897;52.464;13.428;2024-03-02T20:36:45;9.30;99.90
81488;DHT22;70897;52.464;13.428;2024-03-02T20:39:30;9.30;99.90
81488;DHT22;70897;52.464;13.428;2024-03-02T20:42:15;9.20;99.90
81488;DHT22;70897;52.464;13.428;2024-03-02T20:45:00;9.20;99.90
81488;DHT22;70897;52.464;13.428;2024-03-02T20:47:45;9.20;99.90
81488;DHT22;70897;52.464;13.428;2024-03-02T20:50:30;9.20;99.90
81488;DHT22;70897;52.464;13.428;2024-03-02T20:53:15;9.20;99.90
81488;DHT22;70897;52.464;13.428;2024-03-02T20:56:00;9.20;99.90
81488;DHT22;70897;52.464;13.428;2024-03-02T20:58:45;9.20;99.90
81488;DHT22;70897;52.464;13.428;2024-03-02T21:01:31;9.20;99.90
81488;DHT22;70897;52.464;13.428;2024-03-02T21:04:16;9.10;99.90
81488;DHT22;70897;52.464;13.428;2024-03-02T21:07:01;9.20;99.90
81488;DHT22;70897;52.464;13.428;2024-03-02T21:09:47;9.20;99.90
81488;DHT22;70897;52.464;13.428;2024-03-02T21:12:32;9.20;99.90
81488;DHT22;70897;52.464;13.428;2024-03-02T21:15:17;9.20;99.90
81488;DHT22;70897;52.464;13.428;2024-03-02T21:18:02;9.20;99.90
81488;DHT22;70897;52.464;13.428;2024-03-02T21:20:48;9.20;99.90
81488;DHT22;70897;52.464;13.428;2024-03-02T21:23:34;9.20;99.90
81488;DHT22;70897;52.464;13.428;2024-03-02T21:26:20;9.20;99.90
81488;DHT22;70897;52.464;13.428;2024-03-02T21:29:05;9.10;99.90
81488;DHT22;70897;52.464;13.428;2024-03-02T21:31:53;9.10;99.90
81488;DHT22;70897;52.464;13.428;2024-03-02T21:34:40;9.10;99.90
81488;DHT22;70897;52.464;13.428;2024-03-02T21:37:26;9.10;99.90
81488;DHT22;70897;52.464;13.428;2024-03-02T21:40:12;9.10;99.90
81488;DHT22;70897;52.464;13.428;2024-03-02T21:42:57;9.10;99.90
81488;DHT22;70897;52.464;13.428;2024-03-02T21:45:42;9.10;99.90
81488;DHT22;70897;52.464;13.428;2024-03-02T21:48:27;9.10;99.90
81488;DHT22;70897;52.464;13.428;2024-03-02T21:51:15;9.00;99.90
81488;DHT22;70897;52.464;13.428;2024-03-02T21:54:00;9.00;99.90
81488;DHT22;70897;52.464;13.428;2024-03-02T21:56:45;8.90;99.90
81488;DHT22;70897;52.464;13.428;2024-03-02T21:59:30;8.90;99.90
81488;DHT22;70897;52.464;13.428;2024-03-02T22:02:17;8.90;99.90
81488;DHT22;70897;52.464;13.428;2024-03-02T22:05:02;8.80;99.90
81488;DHT22;70897;52.464;13.428;2024-03-02T22:07:50;8.90;99.90
81488;DHT22;70897;52.464;13.428;2024-03-02T22:10:35;8.90;99.90
81488;DHT22;70897;52.464;13.428;2024-03-02T22:13:20;8.80;99.90
81488;DHT22;70897;52.464;13.428;2024-03-02T22:16:05;9.00;99.90
81488;DHT22;70897;52.464;13.428;2024-03-02T22:18:51;8.90;99.90
81488;DHT22;70897;52.464;13.428;2024-03-02T22:21:36;8.90;99.90
81488;DHT22;70897;52.464;13.428;2024-03-02T22:24:21;8.90;99.90
81488;DHT22;70897;52.464;13.428;2024-03-02T22:27:08;9.00;99.90
81488;DHT22;70897;52.464;13.428;2024-03-02T22:29:53;8.90;99.90
81488;DHT22;70897;52.464;13.428;2024-03-02T22:32:38;9.00;99.90
81488;DHT22;70897;52.464;13.428;2024-03-02T22:35:23;8.90;99.90
81488;DHT22;70897;52.464;13.428;2024-03-02T22:38:08;8.90;99.90
81488;DHT22;70897;52.464;13.428;2024-03-02T22:40:53;8.80;99.90
81488;DHT22;70897;52.464;13.428;2024-03-02T22:43:38;8.80;99.90
81488;DHT22;70897;52.464;13.428;2024-03-02T22:46:23;8.90;99.90
81488;DHT22;70897;52.464;13.428;2024-03-02T22:49:09;8.90;99.90
81488;DHT22;70897;52.464;13.428;2024-03-02T22:51:53;8.90;99.90
81488;DHT22;70897;52.464;13.428;2024-03-02T22:54:38;9.00;99.90
81488;DHT22;70897;52.464;13.428;2024-03-02T22:57:23;9.10;99.90
81488;DHT22;70897;52.464;13.428;2024-03-02T23:00:09;9.10;99.90
81488;DHT22;70897;52.464;13.428;2024-03-02T23:03:05;9.10;99.90
81488;DHT22;70897;52.464;13.428;2024-03-02T23:05:50;9.10;99.90
81488;DHT22;70897;52.464;13.428;2024-03-02T23:08:35;9.10;99.90
81488;DHT22;70897;52.464;13.428;2024-03-02T23:11:23;9.20;99.90
81488;DHT22;70897;52.464;13.428;2024-03-02T23:14:08;9.10;99.90
81488;DHT22;70897;52.464;13.428;2024-03-02T23:16:54;9.20;99.90
81488;DHT22;70897;52.464;13.428;2024-03-02T23:19:39;9.10;99.90
81488;DHT22;70897;52.464;13.428;2024-03-02T23:22:24;9.10;99.90
81488;DHT22;70897;52.464;13.428;2024-03-02T23:25:09;9.10;99.90
81488;DHT22;70897;52.464;13.428;2024-03-02T23:27:54;9.10;99.90
81488;DHT22;70897;52.464;13.428;2024-03-02T23:30:39;9.00;99.90
81488;DHT22;70897;52.464;13.428;2024-03-02T23:33:24;9.00;99.90
81488;DHT22;70897;52.464;13.428;2024-03-02T23:36:09;9.10;99.90
81488;DHT22;70897;52.464;13.428;2024-03-02T23:38:54;9.10;99.90
81488;DHT22;70897;52.464;13.428;2024-03-02T23:41:40;9.00;99.90
81488;DHT22;70897;52.464;13.428;2024-03-02T23:44:25;8.90;99.90
81488;DHT22;70897;52.464;13.428;2024-03-02T23:47:10;9.00;99.90
81488;DHT22;70897;52.464;13.428;2024-03-02T23:49:55;8.90;99.90
81488;DHT22;70897;52.464;13.428;2024-03-02T23:52:40;8.90;99.90
81488;DHT22;70897;52.464;13.428;2024-03-02T23:55:25;8.90;99.90
81488;DHT22;70897;52.464;13.428;2024-03-02T23:58:12;8.90;99.90
